Time;durP1;ratioP1;P1;durP2;ratioP2;P2;SDS_P1;SDS_P2;PMS_P1;PMS_P2;Temp;Humidity;BMP_temperature;BMP_pressure;BME280_temperature;BME280_humidity;BME280_pressure;Samples;Min_cycle;Max_cycle;Signal;HPM_P1;HPM_P2
2021/09/08 06:37:32;;;;;;;4.90;4.30;;;24.30;57.90;;;;;;4996567;28;20459;-86
2021/09/08 06:40:34;;;;;;;4.63;4.10;;;24.30;58.00;;;;;;4964856;28;20455;-81
2021/09/08 06:46:15;;;;;;;5.00;4.50;;;24.30;58.00;;;;;;4958220;29;20410;-81
2021/09/08 06:48:43;;;;;;;5.30;4.37;;;24.30;58.00;;;;;;4941552;29;20453;-81
2021/09/08 06:51:18;;;;;;;5.00;4.50;;;24.30;57.90;;;;;;4956229;29;20422;-81
2021/09/08 06:53:48;;;;;;;4.63;3.93;;;24.30;57.90;;;;;;4927662;29;20414;-80
2021/09/08 06:56:14;;;;;;;4.83;4.40;;;24.30;57.90;;;;;;4926791;29;20490;-81
2021/09/08 08:03:48;;;;;;;6.80;5.90;;;24.30;57.90;;;;;;4827469;29;20431;-86
2021/09/08 08:13:12;;;;;;;8.00;7.00;;;24.30;57.80;;;;;;4837152;29;20391;-87
2021/09/08 08:16:14;;;;;;;;;;;;;;;;;;;;;
2021/09/08 08:22:30;;;;;;;7.60;6.80;;;24.40;57.80;;;;;;4830444;29;20504;-87
2021/09/08 08:25:31;;;;;;;;;;;;;;;;;;;;;
2021/09/08 08:28:18;;;;;;;10.23;7.83;;;24.40;57.70;;;;;;4854874;29;20516;-87
2021/09/08 08:30:49;;;;;;;9.43;6.80;;;24.40;57.70;;;;;;4876208;29;20445;-87
2021/09/08 08:33:43;;;;;;;9.53;8.40;;;24.30;57.70;;;;;;4877124;29;20434;-85
2021/09/08 08:36:39;;;;;;;8.93;8.03;;;24.40;57.70;;;;;;4878497;29;20433;-86
2021/09/08 08:40:03;;;;;;;;;;;;;;;;;;;;;
2021/09/08 08:42:46;;;;;;;9.67;8.03;;;24.40;57.70;;;;;;4888600;29;20807;-86
2021/09/08 08:45:21;;;;;;;9.83;8.80;;;24.40;57.70;;;;;;4893828;29;20797;-85
2021/09/08 08:47:47;;;;;;;10.53;8.23;;;24.40;57.70;;;;;;4876583;29;20435;-86
2021/09/08 08:50:47;;;;;;;9.50;8.50;;;24.40;57.70;;;;;;4894030;29;20426;-85
2021/09/08 08:54:17;;;;;;;8.83;7.93;;;24.40;57.70;;;;;;4877386;29;20436;-85
2021/09/08 08:57:33;;;;;;;8.73;7.83;;;24.40;57.60;;;;;;4902939;29;20420;-85
2021/09/08 09:00:09;;;;;;;8.73;7.83;;;24.40;57.70;;;;;;4893724;29;20492;-86
2021/09/08 09:02:36;;;;;;;8.00;7.20;;;24.40;57.70;;;;;;4894047;29;20436;-86
2021/09/08 09:05:37;;;;;;;;;;;;;;;;;;;;;
2021/09/08 09:08:58;;;;;;;7.63;6.83;;;24.40;57.70;;;;;;4913470;29;20451;-85
2021/09/08 09:17:49;;;;;;;8.37;7.00;;;24.40;57.70;;;;;;4839014;29;20477;-86
2021/09/08 09:20:40;;;;;;;8.30;7.50;;;24.40;57.70;;;;;;4854582;29;20527;-86
2021/09/08 09:29:35;;;;;;;9.77;8.40;;;24.50;57.80;;;;;;4838578;29;20506;-85
2021/09/08 09:38:49;;;;;;;8.60;7.63;;;24.50;57.80;;;;;;4840577;29;20497;-86
2021/09/08 09:55:43;;;;;;;;;;;;;;;;;;;;;
2021/09/08 10:35:38;;;;;;;;;;;;;;;;;;;;;
2021/09/08 10:38:35;;;;;;;8.93;7.70;;;24.60;58.10;;;;;;4811938;29;20489;-85
2021/09/08 10:41:06;;;;;;;8.97;8.03;;;24.60;58.10;;;;;;4826990;29;20816;-84
2021/09/08 10:43:37;;;;;;;9.20;8.00;;;24.70;58.10;;;;;;4826030;29;20429;-86
2021/09/08 10:46:22;;;;;;;9.07;8.03;;;24.70;58.10;;;;;;4827114;29;20505;-85
2021/09/08 10:48:51;;;;;;;9.20;7.83;;;24.70;58.00;;;;;;4826061;29;20588;-85
2021/09/08 11:05:10;;;;;;;8.23;7.40;;;24.70;58.10;;;;;;4935781;28;20422;-86
2021/09/08 11:07:49;;;;;;;8.80;7.63;;;24.70;58.00;;;;;;4995333;28;20412;-86
2021/09/08 11:10:31;;;;;;;8.40;7.33;;;24.70;58.00;;;;;;4995689;28;20423;-86
2021/09/08 11:13:01;;;;;;;9.17;7.33;;;24.70;58.00;;;;;;5014091;28;20431;-86
2021/09/08 11:19:36;;;;;;;8.47;7.03;;;24.80;58.00;;;;;;5012107;28;20463;-86
2021/09/08 11:22:06;;;;;;;7.07;6.37;;;24.80;58.10;;;;;;5013046;28;20436;-85
2021/09/08 11:24:35;;;;;;;9.33;7.97;;;24.80;58.10;;;;;;5014073;28;20511;-86
2021/09/08 11:27:10;;;;;;;8.30;7.50;;;24.80;58.10;;;;;;5013713;28;20436;-86
2021/09/08 11:29:45;;;;;;;9.33;7.83;;;24.80;58.10;;;;;;4999110;28;20435;-85
2021/09/08 11:33:08;;;;;;;8.30;7.20;;;24.80;58.00;;;;;;4995970;28;20487;-88
2021/09/08 11:38:34;;;;;;;7.33;6.50;;;24.80;58.00;;;;;;5012351;28;20512;-88
2021/09/08 11:41:21;;;;;;;7.50;6.77;;;24.80;58.00;;;;;;4995261;28;20415;-87
2021/09/08 11:44:47;;;;;;;8.27;7.30;;;24.90;58.00;;;;;;4994079;28;20470;-87
2021/09/08 11:47:59;;;;;;;7.70;6.90;;;24.90;58.00;;;;;;4936530;29;20422;-87
2021/09/08 11:54:01;;;;;;;8.30;6.93;;;24.90;58.00;;;;;;4953164;29;20468;-87
2021/09/08 12:00:20;;;;;;;7.73;6.93;;;24.90;57.90;;;;;;4952021;29;20465;-88
2021/09/08 12:02:51;;;;;;;6.77;6.17;;;24.90;57.90;;;;;;4936431;29;20415;-88
2021/09/08 12:05:49;;;;;;;7.27;6.63;;;24.90;57.90;;;;;;4936889;29;20834;-87
2021/09/08 12:12:15;;;;;;;8.97;6.30;;;24.90;57.90;;;;;;4901061;29;20418;-87
2021/09/08 12:18:29;;;;;;;6.97;5.73;;;24.90;57.80;;;;;;4915617;29;20468;-86
2021/09/08 12:21:35;;;;;;;7.67;6.10;;;24.90;57.80;;;;;;4916857;29;20415;-86
2021/09/08 12:24:31;;;;;;;6.50;5.60;;;24.90;57.80;;;;;;4900296;29;20432;-86
2021/09/08 12:27:00;;;;;;;6.77;6.07;;;24.90;57.70;;;;;;4911744;29;20437;-86
2021/09/08 12:29:40;;;;;;;7.17;6.23;;;24.80;57.60;;;;;;4913932;29;20409;-88
2021/09/08 12:32:12;;;;;;;8.10;6.97;;;24.80;57.60;;;;;;4897597;29;20428;-85
2021/09/08 12:34:46;;;;;;;6.80;5.53;;;24.80;57.60;;;;;;4913036;29;20417;-85
2021/09/08 12:37:18;;;;;;;6.67;6.03;;;24.80;57.60;;;;;;4912352;29;20512;-86
2021/09/08 12:42:59;;;;;;;6.60;5.43;;;24.80;57.60;;;;;;4950927;29;20399;-86
2021/09/08 12:45:35;;;;;;;;;;;;;;;;;;;;;
2021/09/08 12:48:01;;;;;;;7.30;6.60;;;24.80;57.60;;;;;;4935045;29;20426;-86
2021/09/08 12:53:52;;;;;;;6.43;5.80;;;24.80;57.50;;;;;;5011813;28;20627;-86
2021/09/08 12:56:19;;;;;;;6.90;6.20;;;24.80;57.60;;;;;;4993674;28;20420;-85
2021/09/08 12:58:48;;;;;;;7.40;6.00;;;24.80;57.60;;;;;;5040700;23;21480;-86
2021/09/08 13:01:14;;;;;;;7.90;7.10;;;24.80;57.50;;;;;;4956325;29;20437;-86
2021/09/08 13:03:43;;;;;;;9.53;7.47;;;24.80;57.50;;;;;;4954615;29;20461;-86
2021/09/08 13:06:09;;;;;;;8.00;6.30;;;24.80;57.50;;;;;;4972351;29;20489;-86
2021/09/08 13:08:35;;;;;;;8.23;7.40;;;24.80;57.50;;;;;;4957619;29;20410;-86
2021/09/08 13:11:01;;;;;;;14.27;10.20;;;24.80;57.50;;;;;;4958389;29;20260;-85
2021/09/08 13:13:27;;;;;;;18.57;15.80;;;24.80;57.50;;;;;;4973939;29;20186;-85
2021/09/08 13:15:53;;;;;;;40.90;23.53;;;24.80;57.50;;;;;;4959105;29;20418;-84
2021/09/08 13:18:19;;;;;;;55.17;33.07;;;24.80;57.40;;;;;;4957786;29;20499;-85
2021/09/08 13:20:48;;;;;;;74.77;42.70;;;24.70;57.40;;;;;;4973410;29;20422;-85
2021/09/08 13:23:14;;;;;;;81.00;46.00;;;24.80;57.40;;;;;;4973411;29;20432;-86
2021/09/08 13:25:40;;;;;;;90.97;51.67;;;24.80;57.50;;;;;;4951860;29;20495;-85
2021/09/08 13:28:12;;;;;;;98.27;56.90;;;24.80;57.50;;;;;;4967474;29;20418;-85
2021/09/08 13:30:38;;;;;;;102.30;55.77;;;24.70;57.40;;;;;;4953690;29;20422;-85
2021/09/08 13:33:07;;;;;;;100.83;58.57;;;24.70;57.40;;;;;;4954106;29;20497;-84
2021/09/08 13:35:38;;;;;;;104.10;59.27;;;24.70;57.40;;;;;;4954607;29;20189;-85
2021/09/08 13:38:08;;;;;;;120.97;62.40;;;24.70;57.40;;;;;;4970935;29;20485;-85
2021/09/08 13:40:34;;;;;;;112.73;62.67;;;24.70;57.40;;;;;;4954051;29;20488;-85
2021/09/08 13:43:00;;;;;;;110.43;65.00;;;24.70;57.40;;;;;;4953481;29;20497;-84
2021/09/08 13:45:26;;;;;;;123.67;64.83;;;24.70;57.40;;;;;;4954279;29;20178;-84
2021/09/08 13:47:53;;;;;;;115.80;60.87;;;24.70;57.40;;;;;;4970825;29;20178;-85
2021/09/08 13:50:29;;;;;;;;;;;;;;;;;;;;;
2021/09/08 13:53:30;;;;;;;123.07;65.80;;;24.70;57.40;;;;;;4970818;29;20417;-85
2021/09/08 13:55:57;;;;;;;118.40;65.77;;;24.70;57.40;;;;;;4953921;29;20418;-85
2021/09/08 13:58:23;;;;;;;111.00;61.97;;;24.70;57.40;;;;;;4953374;29;20453;-85
2021/09/08 14:00:55;;;;;;;116.90;65.73;;;24.70;57.40;;;;;;4953175;29;20434;-85
2021/09/08 14:03:24;;;;;;;108.63;62.60;;;24.70;57.40;;;;;;4970663;29;20429;-84
2021/09/08 14:05:50;;;;;;;117.10;66.03;;;24.70;57.40;;;;;;4973396;29;20493;-84
2021/09/08 14:08:17;;;;;;;106.83;61.03;;;24.70;57.40;;;;;;4972490;29;20446;-85
2021/09/08 14:10:46;;;;;;;106.40;62.17;;;24.70;57.40;;;;;;4970901;29;20414;-84
2021/09/08 14:13:13;;;;;;;115.80;62.20;;;24.70;57.40;;;;;;4973057;29;20417;-84
2021/09/08 14:15:40;;;;;;;106.27;60.83;;;24.70;57.40;;;;;;4954680;29;20432;-85
2021/09/08 14:18:06;;;;;;;95.77;59.13;;;24.70;57.40;;;;;;4950311;29;20461;-86
2021/09/08 14:20:33;;;;;;;108.80;63.10;;;24.70;57.40;;;;;;4949083;29;20425;-87
2021/09/08 14:23:02;;;;;;;109.70;63.10;;;24.70;57.40;;;;;;4949456;29;20477;-85
2021/09/08 14:25:28;;;;;;;99.67;60.13;;;24.70;57.40;;;;;;4949126;29;20428;-86
2021/09/08 14:27:54;;;;;;;111.87;61.50;;;24.70;57.40;;;;;;4949619;29;20870;-86
2021/09/08 14:33:43;;;;;;;102.33;61.13;;;24.70;57.40;;;;;;4966587;29;20385;-86
2021/09/08 14:36:12;;;;;;;99.43;55.90;;;24.60;57.40;;;;;;4966081;29;20414;-85
2021/09/08 14:38:38;;;;;;;98.83;56.10;;;24.70;57.50;;;;;;4966144;29;20493;-86
2021/09/08 14:41:03;;;;;;;101.53;55.57;;;24.60;57.40;;;;;;4949395;29;20433;-85
2021/09/08 14:43:37;;;;;;;101.47;58.57;;;24.60;57.40;;;;;;4949603;28;20228;-85
2021/09/08 14:46:05;;;;;;;95.30;56.30;;;24.60;57.40;;;;;;4951872;29;20614;-86
2021/09/08 14:48:33;;;;;;;99.63;58.30;;;24.60;57.50;;;;;;4950371;28;20430;-86
2021/09/08 14:50:59;;;;;;;95.83;54.50;;;24.60;57.50;;;;;;4949566;29;20481;-85
2021/09/08 14:53:25;;;;;;;96.30;59.57;;;24.60;57.50;;;;;;4950072;29;20498;-85
2021/09/08 14:55:53;;;;;;;95.83;55.57;;;24.60;58.00;;;;;;4969761;29;20178;-85
2021/09/08 14:58:19;;;;;;;91.73;57.47;;;24.60;57.50;;;;;;4953333;29;20629;-85
2021/09/08 15:00:45;;;;;;;99.33;61.10;;;24.60;57.50;;;;;;4952400;29;20466;-86
2021/09/08 15:03:11;;;;;;;88.03;51.93;;;24.60;57.50;;;;;;4952145;29;20234;-85
2021/09/08 15:05:37;;;;;;;82.73;51.90;;;24.60;57.50;;;;;;4952500;29;20180;-85
2021/09/08 15:08:04;;;;;;;97.73;56.70;;;24.60;57.50;;;;;;4951932;29;20170;-85
2021/09/08 15:10:30;;;;;;;98.77;56.97;;;24.60;57.50;;;;;;4968455;28;20469;-86
2021/09/08 15:13:03;;;;;;;91.73;54.07;;;24.60;57.50;;;;;;4968490;29;20417;-85
2021/09/08 15:25:45;;;;;;;87.47;54.70;;;24.60;57.60;;;;;;4968610;29;20420;-87
2021/09/08 15:29:19;;;;;;;78.50;51.27;;;24.60;57.60;;;;;;4950163;29;20422;-86
2021/09/08 15:41:53;;;;;;;90.70;54.33;;;24.50;57.70;;;;;;4872257;29;20390;-85
2021/09/08 15:44:25;;;;;;;82.60;48.40;;;24.60;57.80;;;;;;4871976;29;20434;-85
2021/09/08 15:46:51;;;;;;;78.23;51.57;;;24.60;57.80;;;;;;4871705;29;20451;-85
2021/09/08 15:49:20;;;;;;;84.20;51.40;;;24.60;57.80;;;;;;4872406;29;20501;-86
2021/09/08 15:51:46;;;;;;;78.17;50.00;;;24.60;57.70;;;;;;4871480;29;20426;-86
2021/09/08 15:54:12;;;;;;;81.33;49.60;;;24.60;57.70;;;;;;4872444;29;20434;-86
2021/09/08 15:56:47;;;;;;;81.10;49.30;;;24.70;57.80;;;;;;4873787;29;20194;-86
2021/09/08 15:59:15;;;;;;;75.40;48.00;;;24.70;57.70;;;;;;4871689;29;20485;-86
2021/09/08 16:01:44;;;;;;;87.10;48.03;;;24.70;57.80;;;;;;4871373;29;20422;-86
2021/09/08 16:04:12;;;;;;;74.80;48.10;;;24.70;57.70;;;;;;4876213;29;20460;-86
2021/09/08 16:06:38;;;;;;;76.33;46.27;;;24.70;57.70;;;;;;4927908;29;20422;-86
2021/09/08 16:09:03;;;;;;;79.80;50.83;;;24.70;57.70;;;;;;4954947;29;20430;-86
2021/09/08 16:11:48;;;;;;;72.70;45.80;;;24.70;57.70;;;;;;4968736;29;20175;-86
2021/09/08 16:14:16;;;;;;;73.57;45.93;;;24.70;57.80;;;;;;4951935;29;20206;-85
2021/09/08 16:16:46;;;;;;;69.00;44.87;;;24.70;57.70;;;;;;4968651;29;20446;-87
2021/09/08 16:19:28;;;;;;;;;;;;;;;;;;;;;
2021/09/08 16:25:16;;;;;;;66.23;42.60;;;24.80;57.80;;;;;;4946794;28;20398;-87
2021/09/08 16:27:43;;;;;;;66.23;45.07;;;24.70;57.80;;;;;;4946118;29;20422;-87
2021/09/08 16:34:37;;;;;;;65.60;42.63;;;24.80;57.80;;;;;;4945479;29;20387;-87
2021/09/08 16:37:06;;;;;;;66.37;43.27;;;24.80;57.80;;;;;;4874296;29;20433;-87
2021/09/08 16:39:34;;;;;;;72.60;44.23;;;24.70;57.80;;;;;;4875908;29;21104;-87
2021/09/08 16:42:00;;;;;;;65.80;42.90;;;24.70;57.80;;;;;;4874469;29;20433;-87
2021/09/08 16:44:25;;;;;;;66.07;42.93;;;24.70;57.80;;;;;;4874675;29;20429;-87
2021/09/08 16:46:54;;;;;;;62.77;42.10;;;24.70;57.80;;;;;;4874780;29;20197;-87
2021/09/08 16:49:22;;;;;;;67.30;42.10;;;24.80;57.80;;;;;;4889567;29;20189;-87
2021/09/08 16:51:48;;;;;;;63.47;42.23;;;24.80;57.80;;;;;;4890172;29;20417;-87
2021/09/08 16:54:14;;;;;;;60.90;41.77;;;24.80;57.80;;;;;;4890566;29;20413;-87
2021/09/08 16:56:40;;;;;;;61.20;40.87;;;24.80;57.80;;;;;;4889138;29;20229;-87
2021/09/08 16:59:06;;;;;;;60.40;40.80;;;24.80;57.80;;;;;;4874284;29;20476;-87
2021/09/08 17:01:31;;;;;;;63.83;40.37;;;24.80;57.80;;;;;;4875022;29;20189;-86
2021/09/08 17:10:43;;;;;;;55.80;38.20;;;24.80;57.80;;;;;;4892669;29;20525;-87
2021/09/08 17:13:09;;;;;;;54.10;37.40;;;24.70;57.80;;;;;;4877035;29;20435;-87
2021/09/08 17:16:21;;;;;;;56.67;37.00;;;24.70;57.80;;;;;;4876572;29;20453;-87
2021/09/08 17:18:47;;;;;;;54.70;35.77;;;24.80;57.80;;;;;;4866725;29;20478;-87
2021/09/08 17:21:25;;;;;;;52.10;35.80;;;24.70;57.80;;;;;;4874097;29;20430;-87
2021/09/08 17:23:54;;;;;;;50.23;35.87;;;24.80;57.90;;;;;;4874618;29;20423;-86
2021/09/08 17:26:23;;;;;;;48.90;34.10;;;24.80;57.90;;;;;;4858126;29;20418;-86
2021/09/08 17:32:15;;;;;;;53.57;34.00;;;24.80;57.80;;;;;;4872937;29;21040;-86
2021/09/08 17:35:04;;;;;;;51.77;34.40;;;24.80;57.90;;;;;;4874619;29;20482;-86
2021/09/08 17:37:38;;;;;;;47.97;31.83;;;24.80;57.90;;;;;;4850054;29;20977;-86
2021/09/08 17:40:13;;;;;;;44.83;33.10;;;24.80;57.90;;;;;;4840388;29;20566;-85
2021/09/08 17:43:00;;;;;;;42.80;31.43;;;24.80;57.90;;;;;;4858765;29;20470;-86
2021/09/08 17:45:36;;;;;;;45.40;31.00;;;24.80;57.80;;;;;;4895292;29;20423;-85
2021/09/08 17:48:18;;;;;;;44.63;32.60;;;24.80;57.90;;;;;;4895804;29;20408;-85
2021/09/08 17:50:45;;;;;;;44.37;30.97;;;24.80;57.80;;;;;;4911475;29;20420;-86
2021/09/08 17:53:11;;;;;;;43.23;30.83;;;24.80;57.80;;;;;;4895556;29;20421;-86
2021/09/08 17:55:51;;;;;;;39.43;28.97;;;24.80;57.80;;;;;;4895059;29;20480;-86
2021/09/08 17:58:21;;;;;;;41.90;29.27;;;24.80;57.80;;;;;;4910040;29;20463;-87
2021/09/08 18:01:07;;;;;;;39.87;28.57;;;24.80;57.80;;;;;;4910164;29;20488;-87
2021/09/08 18:03:33;;;;;;;45.40;27.93;;;24.80;57.80;;;;;;4894155;29;20468;-87
2021/09/08 18:06:05;;;;;;;43.17;28.13;;;24.80;57.80;;;;;;4909867;29;20425;-87
2021/09/08 18:08:37;;;;;;;36.10;26.53;;;24.80;57.80;;;;;;4910427;29;20419;-87
2021/09/08 18:11:09;;;;;;;34.83;27.17;;;24.80;57.80;;;;;;4893358;29;20939;-86
2021/09/08 18:13:34;;;;;;;42.43;26.83;;;24.80;57.80;;;;;;4909461;29;20457;-87
2021/09/08 18:16:06;;;;;;;37.03;26.80;;;24.80;57.80;;;;;;4893145;29;20469;-86
2021/09/08 18:18:31;;;;;;;40.07;25.87;;;24.80;57.80;;;;;;4893739;29;20347;-86
2021/09/08 18:20:57;;;;;;;36.33;24.83;;;24.80;57.80;;;;;;4908504;29;20974;-87
2021/09/08 18:23:23;;;;;;;33.93;25.00;;;24.80;57.80;;;;;;4909794;29;20176;-86
2021/09/08 18:26:08;;;;;;;33.10;23.60;;;24.80;57.80;;;;;;4909373;29;20456;-86
2021/09/08 18:28:42;;;;;;;36.33;23.47;;;24.80;57.80;;;;;;4913151;29;20235;-86
2021/09/08 18:31:13;;;;;;;35.30;23.97;;;24.80;57.80;;;;;;4933207;29;20422;-85
2021/09/08 18:33:38;;;;;;;33.73;23.37;;;24.80;57.80;;;;;;4932346;29;20458;-86
2021/09/08 18:36:04;;;;;;;33.40;23.93;;;24.80;57.80;;;;;;4932502;29;20455;-86
2021/09/08 18:38:38;;;;;;;33.53;23.60;;;24.80;57.80;;;;;;4932959;29;20483;-86
2021/09/08 18:41:17;;;;;;;29.87;22.13;;;24.80;57.80;;;;;;4932277;29;20407;-85
2021/09/08 18:43:46;;;;;;;27.17;21.00;;;24.80;57.80;;;;;;4933175;29;20424;-85
2021/09/08 18:49:48;;;;;;;;;;;;;;;;;;;;;
2021/09/08 18:52:14;;;;;;;30.20;22.27;;;24.80;57.90;;;;;;4912317;29;20528;-86
2021/09/08 19:31:18;;;;;;;22.10;15.40;;;24.80;58.10;;;;;;4730607;30;20425;-86
2021/09/08 19:37:16;;;;;;;18.70;15.13;;;24.80;58.00;;;;;;4747996;30;20470;-86
2021/09/08 19:40:04;;;;;;;19.37;14.70;;;24.70;58.00;;;;;;4741054;30;20546;-85
2021/09/08 19:43:13;;;;;;;23.17;16.70;;;24.70;58.00;;;;;;4793656;29;20429;-87
2021/09/08 19:45:43;;;;;;;20.80;14.23;;;24.80;58.00;;;;;;4822293;29;20457;-85
2021/09/08 19:48:38;;;;;;;18.23;14.00;;;24.80;58.00;;;;;;4804994;29;20490;-84
2021/09/08 19:51:17;;;;;;;;;;;;;;;;;;;;;
2021/09/08 19:53:46;;;;;;;18.67;13.13;;;24.80;58.10;;;;;;4927057;29;20910;-84
2021/09/08 20:03:50;;;;;;;16.97;13.30;;;24.80;58.00;;;;;;4877393;29;20393;-89
2021/09/08 20:06:28;;;;;;;14.27;11.77;;;24.70;57.90;;;;;;4830807;29;20431;-88
2021/09/08 20:12:19;;;;;;;16.67;14.83;;;24.70;57.90;;;;;;4878223;29;20656;-85
2021/09/08 20:14:50;;;;;;;14.90;12.67;;;24.70;58.00;;;;;;4875619;29;20581;-85
2021/09/08 20:17:58;;;;;;;15.53;11.43;;;24.70;58.00;;;;;;4875472;29;20426;-85
2021/09/08 20:20:28;;;;;;;15.90;11.77;;;24.80;58.00;;;;;;4873995;29;20482;-85
2021/09/08 20:23:30;;;;;;;16.43;13.00;;;24.70;58.00;;;;;;4875958;29;20431;-88
2021/09/08 20:36:05;;;;;;;11.93;10.50;;;24.60;57.90;;;;;;4792567;29;20433;-87
2021/09/08 20:38:35;;;;;;;12.90;10.37;;;24.60;58.00;;;;;;4800014;29;20470;-87
2021/09/08 20:41:09;;;;;;;11.30;9.90;;;24.60;58.00;;;;;;4800156;30;20418;-87
2021/09/08 20:43:37;;;;;;;13.00;10.80;;;24.60;57.90;;;;;;4800749;30;20436;-86
2021/09/08 20:46:05;;;;;;;11.60;10.40;;;24.60;57.80;;;;;;4799742;29;20497;-87
2021/09/08 20:48:37;;;;;;;11.10;10.00;;;24.60;57.80;;;;;;4800108;29;20510;-86
2021/09/08 20:51:07;;;;;;;11.87;9.77;;;24.60;57.80;;;;;;4791849;30;20435;-88
2021/09/08 20:53:49;;;;;;;10.27;9.17;;;24.60;57.80;;;;;;4786817;30;20411;-86
2021/09/08 20:56:42;;;;;;;10.50;9.50;;;24.60;57.80;;;;;;4783606;30;20536;-85
2021/09/08 20:59:10;;;;;;;9.73;8.73;;;24.60;57.80;;;;;;4771118;30;20462;-85
2021/09/08 21:01:45;;;;;;;9.70;8.03;;;24.60;57.80;;;;;;4772973;29;20526;-85
2021/09/08 21:04:23;;;;;;;10.17;9.17;;;24.60;57.80;;;;;;4858963;29;20418;-85
2021/09/08 21:06:52;;;;;;;13.20;9.27;;;24.60;57.80;;;;;;4869006;29;20493;-85
2021/09/08 21:09:23;;;;;;;9.30;8.40;;;24.50;57.70;;;;;;4897852;29;20416;-85
2021/09/08 21:11:52;;;;;;;8.73;7.83;;;24.50;57.70;;;;;;4930089;29;20483;-85
2021/09/08 21:14:23;;;;;;;10.00;8.90;;;24.50;57.70;;;;;;4930122;29;20419;-85
2021/09/08 21:16:55;;;;;;;10.20;9.10;;;24.60;57.70;;;;;;4930474;29;20460;-87
2021/09/08 21:19:21;;;;;;;10.60;9.23;;;24.50;57.70;;;;;;4928853;29;20459;-85
2021/09/08 21:25:50;;;;;;;9.23;8.00;;;24.50;57.60;;;;;;4879165;29;20456;-86
2021/09/08 21:28:27;;;;;;;8.03;7.00;;;24.50;57.70;;;;;;4929689;29;20898;-87
2021/09/08 21:30:56;;;;;;;10.20;8.20;;;24.50;57.80;;;;;;4929193;29;20770;-87
2021/09/08 21:33:42;;;;;;;9.53;7.77;;;24.50;57.70;;;;;;4928559;29;20415;-86
2021/09/08 21:36:09;;;;;;;8.47;7.33;;;24.50;57.70;;;;;;4930619;29;20443;-85
2021/09/08 21:38:44;;;;;;;8.90;8.00;;;24.40;57.60;;;;;;4912916;29;20471;-86
2021/09/08 21:41:11;;;;;;;9.23;7.63;;;24.50;57.50;;;;;;4929200;29;20521;-87
2021/09/08 21:43:37;;;;;;;8.70;7.80;;;24.40;57.50;;;;;;4929151;29;20427;-86
2021/09/08 21:46:09;;;;;;;8.60;7.47;;;24.40;57.50;;;;;;4930548;29;20911;-86
2021/09/08 21:48:48;;;;;;;9.73;8.07;;;24.40;57.50;;;;;;4931110;29;20183;-87
2021/09/08 21:51:20;;;;;;;9.03;6.97;;;24.40;57.40;;;;;;4932728;29;20906;-87
2021/09/08 21:53:46;;;;;;;13.03;7.70;;;24.40;57.40;;;;;;4931846;29;20455;-86
2021/09/08 21:56:14;;;;;;;7.80;7.00;;;24.40;57.40;;;;;;4930755;29;20435;-87
2021/09/08 21:58:45;;;;;;;8.33;7.10;;;24.40;57.40;;;;;;4932632;29;20218;-86
2021/09/08 22:01:13;;;;;;;9.00;7.53;;;24.40;57.40;;;;;;4933028;29;20508;-87
2021/09/08 22:03:42;;;;;;;9.10;6.77;;;24.40;57.40;;;;;;4933027;29;20423;-86
2021/09/08 22:06:14;;;;;;;8.77;7.20;;;24.40;57.30;;;;;;4933393;29;20427;-86
2021/09/08 22:08:42;;;;;;;7.73;6.93;;;24.40;57.20;;;;;;4932969;29;20428;-86
2021/09/08 22:11:22;;;;;;;7.60;6.50;;;24.40;57.30;;;;;;4932120;29;20427;-86
2021/09/08 22:14:18;;;;;;;8.63;7.73;;;24.40;57.20;;;;;;4916529;29;20448;-86
2021/09/08 22:16:47;;;;;;;7.30;6.60;;;24.40;57.30;;;;;;4916663;29;20408;-86
2021/09/08 22:19:18;;;;;;;7.23;6.47;;;24.40;57.30;;;;;;4916292;29;20459;-86
2021/09/08 22:22:07;;;;;;;9.33;7.50;;;24.40;57.20;;;;;;4929668;29;20428;-86
2021/09/08 22:24:33;;;;;;;9.80;7.40;;;24.40;57.10;;;;;;4932972;29;20424;-86
2021/09/08 22:27:04;;;;;;;8.43;7.50;;;24.30;56.80;;;;;;4933942;29;20415;-86
2021/09/08 22:29:39;;;;;;;8.13;7.30;;;24.30;57.00;;;;;;4934364;29;20427;-86
2021/09/08 22:32:13;;;;;;;8.13;7.30;;;24.40;57.00;;;;;;4935558;29;20446;-86
2021/09/08 22:35:01;;;;;;;7.90;7.20;;;24.40;57.00;;;;;;4935145;29;20456;-86
2021/09/08 22:51:33;;;;;;;7.40;6.60;;;24.30;56.90;;;;;;4846563;29;20395;-84
2021/09/08 22:58:09;;;;;;;7.53;6.80;;;24.20;57.00;;;;;;4809518;30;20412;-83
2021/09/08 23:00:56;;;;;;;8.73;7.23;;;24.20;57.00;;;;;;4809658;29;20441;-83
2021/09/08 23:24:10;;;;;;;8.17;7.37;;;24.20;56.90;;;;;;4791464;30;20410;-83
2021/09/08 23:30:15;;;;;;;7.20;6.50;;;24.10;56.80;;;;;;4810412;29;20462;-84
2021/09/08 23:33:19;;;;;;;7.53;6.80;;;24.10;56.80;;;;;;4794484;30;20414;-84
2021/09/08 23:39:27;;;;;;;7.23;6.50;;;24.10;56.70;;;;;;4827735;29;20517;-84
2021/09/08 23:45:47;;;;;;;7.43;6.73;;;24.10;56.70;;;;;;4827996;29;20418;-84
2021/09/08 23:48:36;;;;;;;7.57;6.87;;;24.10;56.70;;;;;;4833532;29;20428;-84
2021/09/08 23:51:42;;;;;;;7.13;6.43;;;24.10;56.70;;;;;;4827110;29;20445;-84
2021/09/08 23:54:45;;;;;;;7.10;6.30;;;24.10;56.60;;;;;;4811671;29;20499;-84
